Waldron, Indiana
Current Conditions -  °F | °C
As of 11:53 PM on Wednesday 22 Oct 2014 (Local Time) from KGEZ Reporting Station
Clear Clear  
Wind Chill: 36°   Ceiling: Unl
Heat Index: 39°   Visibility: 9mi
Dew Point: 35°   Wind: 5mph
Humidity: 86%   Direction: 70°ENE
Pressure: 30.27"   Gusts: NA
Location:  39.45°N, 85.67°W
Report Text: KGEZ 230353Z AUTO 07004KT 9SM CLR 04/02 A3027 RMK AO2 SLP254 T00390017
Loading
Personal Weather Stations






























Interactive Weather Map
Tropical Storm Tracking
New forecast layout! Learn more

10-Day Weather Forecast

Advertisements
Track Severe Weather on mobile